createdAt,value
2023-04-16T00:01:40.815Z,1.70
2023-04-16T00:04:08.925Z,1.77
2023-04-16T00:06:36.897Z,1.90
2023-04-16T00:09:04.872Z,2.00
2023-04-16T00:11:32.819Z,2.30
2023-04-16T00:14:00.822Z,2.33
2023-04-16T00:16:29.246Z,2.27
2023-04-16T00:18:57.299Z,2.20
2023-04-16T00:21:25.336Z,2.10
2023-04-16T00:23:53.423Z,1.73
2023-04-16T00:26:21.367Z,2.40
2023-04-16T00:28:49.349Z,2.47
2023-04-16T00:31:17.388Z,2.50
2023-04-16T00:33:45.417Z,2.23
2023-04-16T00:36:13.379Z,1.93
2023-04-16T00:38:41.425Z,1.83
2023-04-16T00:41:09.386Z,2.63
2023-04-16T00:43:37.435Z,2.37
2023-04-16T00:46:06.380Z,1.50
2023-04-16T00:48:35.249Z,1.23
2023-04-16T00:51:05.033Z,1.03
2023-04-16T00:53:33.279Z,0.80
2023-04-16T00:56:01.508Z,0.90
2023-04-16T00:58:29.577Z,0.70
2023-04-16T01:00:57.826Z,0.87
2023-04-16T01:03:26.188Z,0.80
2023-04-16T01:05:54.212Z,0.57
2023-04-16T01:08:22.834Z,0.53
2023-04-16T01:10:50.854Z,0.60
2023-04-16T01:13:18.838Z,0.50
2023-04-16T01:15:46.760Z,0.70
2023-04-16T01:18:16.886Z,0.50
2023-04-16T01:20:45.167Z,0.70
2023-04-16T01:23:13.219Z,0.60
2023-04-16T01:25:41.127Z,0.87
2023-04-16T01:28:09.184Z,0.90
2023-04-16T01:30:37.239Z,1.00
2023-04-16T01:33:05.246Z,1.00
2023-04-16T01:35:33.251Z,0.70
2023-04-16T01:38:01.279Z,1.00
2023-04-16T01:40:29.322Z,0.90
2023-04-16T01:42:57.421Z,0.77
2023-04-16T01:45:25.375Z,1.27
2023-04-16T01:47:53.434Z,1.20
2023-04-16T01:50:21.885Z,1.73
2023-04-16T01:52:49.911Z,1.30
2023-04-16T01:55:17.861Z,1.30
2023-04-16T01:57:45.758Z,1.30
2023-04-16T02:00:13.769Z,0.90
2023-04-16T02:02:42.124Z,1.17
2023-04-16T02:05:10.333Z,0.83
2023-04-16T02:07:38.291Z,1.00
2023-04-16T02:10:06.792Z,1.20
2023-04-16T02:12:34.747Z,0.90
2023-04-16T02:15:02.759Z,0.90
2023-04-16T02:17:30.804Z,0.70
2023-04-16T02:19:58.798Z,0.90
2023-04-16T02:22:26.864Z,1.20
2023-04-16T02:24:54.935Z,2.23
2023-04-16T02:27:22.910Z,1.20
2023-04-16T02:29:50.989Z,1.50
2023-04-16T02:32:19.653Z,1.80
2023-04-16T02:34:47.734Z,1.60
2023-04-16T02:37:16.730Z,1.90
2023-04-16T02:39:45.269Z,2.00
2023-04-16T02:42:13.193Z,2.20
2023-04-16T02:44:41.166Z,2.30
2023-04-16T02:47:09.293Z,1.87
2023-04-16T02:49:37.353Z,2.10
2023-04-16T02:52:05.375Z,2.17
2023-04-16T02:54:33.361Z,1.97
2023-04-16T02:57:01.454Z,1.87
2023-04-16T02:59:29.852Z,2.30
2023-04-16T03:01:58.049Z,1.80
2023-04-16T03:04:26.272Z,2.13
2023-04-16T03:06:54.303Z,2.07
2023-04-16T03:09:22.380Z,1.93
2023-04-16T03:11:50.354Z,2.27
2023-04-16T03:14:18.296Z,2.20
2023-04-16T03:16:46.377Z,2.10
2023-04-16T03:19:14.426Z,2.23
2023-04-16T03:21:42.437Z,2.37
2023-04-16T03:24:10.360Z,2.57
2023-04-16T03:26:38.509Z,2.70
2023-04-16T03:29:06.865Z,2.60
2023-04-16T03:31:35.006Z,2.40
2023-04-16T03:34:03.010Z,2.80
2023-04-16T03:36:30.915Z,2.90
2023-04-16T03:38:58.886Z,2.27
2023-04-16T03:41:26.786Z,2.90
2023-04-16T03:43:54.775Z,2.87
2023-04-16T03:46:22.868Z,2.90
2023-04-16T03:48:50.914Z,3.10
2023-04-16T03:51:18.796Z,2.77
2023-04-16T03:53:47.348Z,2.60
2023-04-16T03:56:15.322Z,2.40
2023-04-16T03:58:43.290Z,2.37
2023-04-16T04:01:11.253Z,2.47
2023-04-16T04:03:39.497Z,2.40
2023-04-16T04:06:10.875Z,2.60
2023-04-16T04:08:39.021Z,2.40
2023-04-16T04:11:07.007Z,1.57
2023-04-16T04:13:34.937Z,1.97
2023-04-16T04:16:02.897Z,2.30
2023-04-16T04:18:30.856Z,2.10
2023-04-16T04:20:59.197Z,1.73
2023-04-16T04:23:27.106Z,2.00
2023-04-16T04:25:55.074Z,1.80
2023-04-16T04:28:23.031Z,1.97
2023-04-16T04:30:50.930Z,2.13
2023-04-16T04:33:18.958Z,2.47
2023-04-16T04:35:46.953Z,2.53
2023-04-16T04:38:16.214Z,2.37
2023-04-16T04:40:44.301Z,2.73
2023-04-16T04:43:12.344Z,2.87
2023-04-16T04:45:40.304Z,2.60
2023-04-16T04:48:08.400Z,2.70
2023-04-16T04:50:36.400Z,3.40
2023-04-16T04:53:05.938Z,3.20
2023-04-16T04:55:33.918Z,2.77
2023-04-16T04:58:01.848Z,2.90
2023-04-16T05:00:29.884Z,2.50
2023-04-16T05:02:57.900Z,2.97
2023-04-16T05:05:26.012Z,2.90
2023-04-16T05:07:54.046Z,2.80
2023-04-16T05:10:22.293Z,2.93
2023-04-16T05:12:50.372Z,3.00
2023-04-16T05:15:18.407Z,2.60
2023-04-16T05:17:46.430Z,2.80
2023-04-16T05:20:14.429Z,2.40
2023-04-16T05:22:42.662Z,2.70
2023-04-16T05:25:10.777Z,2.93
2023-04-16T05:27:38.889Z,2.70
2023-04-16T05:30:07.544Z,2.80
2023-04-16T05:32:35.614Z,2.53
2023-04-16T05:35:03.876Z,2.93
2023-04-16T05:37:31.984Z,2.70
2023-04-16T05:40:00.041Z,2.53
2023-04-16T05:42:28.130Z,2.30
2023-04-16T05:44:56.203Z,2.83
2023-04-16T05:47:25.312Z,2.60
2023-04-16T05:49:53.331Z,2.60
2023-04-16T05:52:21.335Z,2.63
2023-04-16T05:54:49.467Z,2.50
2023-04-16T05:57:17.643Z,2.80
2023-04-16T05:59:45.665Z,2.60
2023-04-16T06:02:13.717Z,2.70
2023-04-16T06:04:41.780Z,2.40
2023-04-16T06:07:09.757Z,2.37
2023-04-16T06:09:37.850Z,2.40
2023-04-16T06:12:05.911Z,2.33
2023-04-16T06:14:33.931Z,2.60
2023-04-16T06:17:01.899Z,2.40
2023-04-16T06:19:29.839Z,2.47
2023-04-16T06:21:58.114Z,3.17
2023-04-16T06:24:26.129Z,2.43
2023-04-16T06:26:54.313Z,3.10
2023-04-16T06:29:27.923Z,2.60
2023-04-16T06:32:01.582Z,2.30
2023-04-16T06:34:29.747Z,2.50
2023-04-16T06:36:57.669Z,1.90
2023-04-16T06:39:25.689Z,2.10
2023-04-16T06:41:53.635Z,2.10
2023-04-16T06:44:21.525Z,1.90
2023-04-16T06:46:49.636Z,2.23
2023-04-16T06:49:17.648Z,1.90
2023-04-16T06:51:45.608Z,2.30
2023-04-16T06:54:13.672Z,1.83
2023-04-16T06:56:41.648Z,1.50
2023-04-16T06:59:09.849Z,2.20
2023-04-16T07:01:37.977Z,1.90
2023-04-16T07:04:06.555Z,1.77
2023-04-16T07:06:35.291Z,2.07
2023-04-16T07:09:03.199Z,1.80
2023-04-16T07:11:31.559Z,1.70
2023-04-16T07:14:00.348Z,1.50
2023-04-16T07:16:28.511Z,1.53
2023-04-16T07:18:56.499Z,1.23
2023-04-16T07:21:24.422Z,1.20
2023-04-16T07:23:52.365Z,1.50
2023-04-16T07:26:20.334Z,1.50
2023-04-16T07:28:48.333Z,1.83
2023-04-16T07:31:16.329Z,2.10
2023-04-16T07:33:44.261Z,1.50
2023-04-16T07:36:12.450Z,1.63
2023-04-16T07:38:40.366Z,1.83
2023-04-16T07:41:08.285Z,1.60
2023-04-16T07:43:36.303Z,1.90
2023-04-16T07:46:04.443Z,1.80
2023-04-16T07:48:32.488Z,1.63
2023-04-16T07:51:00.513Z,1.60
2023-04-16T07:53:28.471Z,1.60
2023-04-16T07:55:56.515Z,1.70
2023-04-16T07:58:24.608Z,2.07
2023-04-16T08:00:52.889Z,2.07
2023-04-16T08:03:21.048Z,1.87
2023-04-16T08:05:49.194Z,1.70
2023-04-16T08:08:17.400Z,1.63
2023-04-16T08:10:45.287Z,1.60
2023-04-16T08:13:13.349Z,1.30
2023-04-16T08:15:41.368Z,1.60
2023-04-16T08:18:14.297Z,1.40
2023-04-16T08:20:42.805Z,1.30
2023-04-16T08:23:10.766Z,1.00
2023-04-16T08:25:39.067Z,1.57
2023-04-16T08:28:07.144Z,1.20
2023-04-16T08:30:35.260Z,1.00
2023-04-16T08:33:03.444Z,1.30
2023-04-16T08:35:31.816Z,1.20
2023-04-16T08:38:02.380Z,1.00
2023-04-16T08:40:30.904Z,1.00
2023-04-16T08:43:00.483Z,1.13
2023-04-16T08:45:28.953Z,1.20
2023-04-16T08:47:57.319Z,1.47
2023-04-16T08:50:26.151Z,1.27
2023-04-16T08:52:55.581Z,1.30
2023-04-16T08:55:27.449Z,1.10
2023-04-16T08:58:01.684Z,1.10
2023-04-16T09:00:30.110Z,1.30
2023-04-16T09:02:58.373Z,1.10
2023-04-16T09:05:27.720Z,1.40
2023-04-16T09:07:56.265Z,1.20
2023-04-16T09:10:24.233Z,1.20
2023-04-16T09:12:52.548Z,1.40
2023-04-16T09:15:20.458Z,1.50
2023-04-16T09:17:48.671Z,1.30
2023-04-16T09:20:16.975Z,1.20
2023-04-16T09:22:44.984Z,1.30
2023-04-16T09:25:13.159Z,1.40
2023-04-16T09:27:41.284Z,1.63
2023-04-16T09:30:23.257Z,2.00
2023-04-16T09:32:51.979Z,1.50
2023-04-16T09:35:20.665Z,1.60
2023-04-16T09:37:58.539Z,1.80
2023-04-16T09:40:28.533Z,1.90
2023-04-16T09:42:59.796Z,1.40
2023-04-16T09:45:28.559Z,1.17
2023-04-16T09:47:56.630Z,1.20
2023-04-16T09:50:24.673Z,1.50
2023-04-16T09:52:52.992Z,1.60
2023-04-16T09:55:25.062Z,1.50
2023-04-16T09:58:00.379Z,1.43
2023-04-16T10:00:28.350Z,1.23
2023-04-16T10:03:07.543Z,1.40
2023-04-16T10:05:35.942Z,1.30
2023-04-16T10:08:03.974Z,1.20
2023-04-16T10:10:31.986Z,1.30
2023-04-16T10:13:00.213Z,1.53
2023-04-16T10:15:28.207Z,1.20
2023-04-16T10:17:56.479Z,1.33
2023-04-16T10:20:24.545Z,0.97
2023-04-16T10:22:52.588Z,1.00
2023-04-16T10:25:20.685Z,0.97
2023-04-16T10:30:16.966Z,1.10
2023-04-16T10:32:45.322Z,1.30
2023-04-16T10:35:18.007Z,1.03
2023-04-16T10:37:46.644Z,1.07
2023-04-16T10:40:27.490Z,1.17
2023-04-16T10:42:57.132Z,1.00
2023-04-16T10:45:33.119Z,1.50
2023-04-16T10:48:01.242Z,1.07
2023-04-16T10:50:36.463Z,1.17
2023-04-16T10:53:27.203Z,2.77
2023-04-16T10:56:04.428Z,1.30
2023-04-16T10:58:33.480Z,1.20
2023-04-16T11:01:02.592Z,1.70
2023-04-16T11:03:33.958Z,1.40
2023-04-16T11:06:15.916Z,1.50
2023-04-16T11:08:53.890Z,1.40
2023-04-16T11:11:23.361Z,1.50
2023-04-16T11:13:51.332Z,1.50
2023-04-16T11:16:19.454Z,1.30
2023-04-16T11:18:51.725Z,1.40
2023-04-16T11:21:19.983Z,1.40
2023-04-16T11:23:51.700Z,1.47
2023-04-16T11:26:29.672Z,1.20
2023-04-16T11:28:58.474Z,1.10
2023-04-16T11:31:28.470Z,1.20
2023-04-16T11:33:57.536Z,1.20
2023-04-16T11:36:27.448Z,1.23
2023-04-16T11:39:02.661Z,1.27
2023-04-16T11:41:30.606Z,1.53
2023-04-16T11:43:58.876Z,1.50
2023-04-16T11:46:39.328Z,1.60
2023-04-16T11:49:07.487Z,1.43
2023-04-16T11:51:40.480Z,1.77
2023-04-16T11:54:11.864Z,1.40
2023-04-16T11:56:40.361Z,1.60
2023-04-16T11:59:24.428Z,1.80
2023-04-16T12:01:53.800Z,1.70
2023-04-16T12:04:23.298Z,1.83
2023-04-16T12:07:16.354Z,1.83
2023-04-16T12:09:44.953Z,1.70
2023-04-16T12:12:34.513Z,1.90
2023-04-16T12:15:06.268Z,2.23
2023-04-16T12:17:35.140Z,1.60
2023-04-16T12:20:10.633Z,2.13
2023-04-16T12:22:40.060Z,1.97
2023-04-16T12:25:09.569Z,1.80
2023-04-16T12:27:53.742Z,1.90
2023-04-16T12:30:23.958Z,1.80
2023-04-16T12:32:55.113Z,1.70
2023-04-16T12:35:34.826Z,1.80
2023-04-16T12:38:02.893Z,2.00
2023-04-16T12:40:30.933Z,2.00
2023-04-16T12:42:59.354Z,1.90
2023-04-16T12:45:27.608Z,1.80
2023-04-16T12:47:55.883Z,1.70
2023-04-16T12:50:24.300Z,1.87
2023-04-16T12:52:52.534Z,1.90
2023-04-16T12:55:20.914Z,1.90
2023-04-16T12:57:50.467Z,2.23
2023-04-16T13:00:18.739Z,2.23
2023-04-16T13:02:47.256Z,2.37
2023-04-16T13:05:17.884Z,3.23
2023-04-16T13:07:45.910Z,2.90
2023-04-16T13:10:14.317Z,2.77
2023-04-16T13:12:42.368Z,3.00
2023-04-16T13:15:11.238Z,3.07
2023-04-16T13:17:39.397Z,3.73
2023-04-16T13:20:07.974Z,3.03
2023-04-16T13:22:35.919Z,2.87
2023-04-16T13:25:03.913Z,2.57
2023-04-16T13:27:33.464Z,2.53
2023-04-16T13:30:01.565Z,2.30
2023-04-16T13:32:30.197Z,2.70
2023-04-16T13:34:58.160Z,2.90
2023-04-16T13:37:26.247Z,2.30
2023-04-16T13:39:54.296Z,2.97
2023-04-16T13:42:23.477Z,3.27
2023-04-16T13:44:54.463Z,2.73
2023-04-16T13:47:22.622Z,3.33
2023-04-16T13:49:50.568Z,3.60
2023-04-16T13:52:18.636Z,3.17
2023-04-16T13:54:46.664Z,3.63
2023-04-16T13:57:15.174Z,4.80
2023-04-16T13:59:43.094Z,4.17
2023-04-16T14:02:12.009Z,4.70
2023-04-16T14:04:40.190Z,4.80
2023-04-16T14:07:08.205Z,4.60
2023-04-16T14:09:36.163Z,5.50
2023-04-16T14:12:04.188Z,4.87
2023-04-16T14:14:32.542Z,6.07
2023-04-16T14:17:00.580Z,6.13
2023-04-16T14:19:28.599Z,5.87
2023-04-16T14:21:56.522Z,6.13
2023-04-16T14:24:24.567Z,6.23
2023-04-16T14:26:52.546Z,6.63
2023-04-16T14:29:20.598Z,6.40
2023-04-16T14:31:48.713Z,6.70
2023-04-16T14:34:16.737Z,7.07
2023-04-16T14:36:45.237Z,6.80
2023-04-16T14:39:13.272Z,6.87
2023-04-16T14:41:41.240Z,6.73
2023-04-16T14:44:09.644Z,7.07
2023-04-16T14:46:39.825Z,6.40
2023-04-16T14:49:10.076Z,6.37
2023-04-16T14:51:39.445Z,7.40
2023-04-16T14:54:07.924Z,6.70
2023-04-16T14:56:35.961Z,6.73
2023-04-16T14:59:03.930Z,7.40
2023-04-16T15:01:31.913Z,6.53
2023-04-16T15:04:02.176Z,6.40
2023-04-16T15:06:30.353Z,7.07
2023-04-16T15:08:58.336Z,7.60
2023-04-16T15:11:26.358Z,6.73
2023-04-16T15:13:54.289Z,6.67
2023-04-16T15:16:22.439Z,6.27
2023-04-16T15:18:51.247Z,6.50
2023-04-16T15:21:19.366Z,7.83
2023-04-16T15:23:47.641Z,6.60
2023-04-16T15:26:15.782Z,7.17
2023-04-16T15:28:43.703Z,7.53
2023-04-16T15:31:11.870Z,7.13
2023-04-16T15:33:40.008Z,7.13
2023-04-16T15:36:08.294Z,7.80
2023-04-16T15:38:36.367Z,7.47
2023-04-16T15:41:04.479Z,7.67
2023-04-16T15:43:32.572Z,7.60
2023-04-16T15:46:01.001Z,7.10
2023-04-16T15:48:29.027Z,7.10
2023-04-16T15:50:57.385Z,7.00
2023-04-16T15:53:25.382Z,7.83
2023-04-16T15:55:55.007Z,8.20
2023-04-16T15:58:23.018Z,8.87
2023-04-16T16:00:54.106Z,8.60
2023-04-16T16:03:23.044Z,8.00
2023-04-16T16:05:51.591Z,8.37
2023-04-16T16:08:19.793Z,7.47
2023-04-16T16:10:48.197Z,7.73
2023-04-16T16:13:19.502Z,7.13
2023-04-16T16:15:47.703Z,7.83
2023-04-16T16:18:15.797Z,7.83
2023-04-16T16:20:44.195Z,6.50
2023-04-16T16:23:12.888Z,6.13
2023-04-16T16:25:41.023Z,6.30
2023-04-16T16:28:10.199Z,6.53
2023-04-16T16:30:38.264Z,6.40
2023-04-16T16:33:06.284Z,6.40
2023-04-16T16:35:34.419Z,5.90
2023-04-16T16:38:03.242Z,5.80
2023-04-16T16:40:32.344Z,6.00
2023-04-16T16:43:00.520Z,6.27
2023-04-16T16:45:29.606Z,5.97
2023-04-16T16:48:00.472Z,6.00
2023-04-16T16:50:28.574Z,6.67
2023-04-16T16:52:56.617Z,6.30
2023-04-16T16:55:24.846Z,6.70
2023-04-16T16:57:52.914Z,6.17
2023-04-16T17:00:22.854Z,6.17
2023-04-16T17:02:52.765Z,6.00
2023-04-16T17:05:21.163Z,6.50
2023-04-16T17:07:49.235Z,7.07
2023-04-16T17:10:21.617Z,6.77
2023-04-16T17:12:50.150Z,6.50
2023-04-16T17:15:21.254Z,7.40
2023-04-16T17:17:49.951Z,6.47
2023-04-16T17:20:18.044Z,6.37
2023-04-16T17:22:46.157Z,6.20
2023-04-16T17:25:14.360Z,6.87
2023-04-16T17:27:42.903Z,6.00
2023-04-16T17:30:11.362Z,6.43
2023-04-16T17:32:39.545Z,6.20
2023-04-16T17:35:08.255Z,6.47
2023-04-16T17:37:36.403Z,6.17
2023-04-16T17:40:08.687Z,5.80
2023-04-16T17:42:37.177Z,5.97
2023-04-16T17:45:05.467Z,5.73
2023-04-16T17:47:35.641Z,5.47
2023-04-16T17:50:04.911Z,5.70
2023-04-16T17:52:33.183Z,6.17
2023-04-16T17:55:05.184Z,5.77
2023-04-16T17:57:33.687Z,5.93
2023-04-16T18:00:01.653Z,5.17
2023-04-16T18:02:29.911Z,4.57
2023-04-16T18:04:58.121Z,4.57
2023-04-16T18:07:26.164Z,4.37
2023-04-16T18:09:54.169Z,5.17
2023-04-16T18:12:22.227Z,5.83
2023-04-16T18:14:50.301Z,6.10
2023-04-16T18:17:19.241Z,6.30
2023-04-16T18:19:47.468Z,5.37
2023-04-16T18:22:15.778Z,5.10
2023-04-16T18:24:43.822Z,4.97
2023-04-16T18:27:12.687Z,4.53
2023-04-16T18:29:40.989Z,4.07
2023-04-16T18:32:11.986Z,4.10
2023-04-16T18:34:40.695Z,4.80
2023-04-16T18:37:09.161Z,5.10
2023-04-16T18:39:38.197Z,4.33
2023-04-16T18:42:06.633Z,4.70
2023-04-16T18:44:35.121Z,4.60
2023-04-16T18:47:03.324Z,4.37
2023-04-16T18:49:31.450Z,4.40
2023-04-16T18:51:59.576Z,4.40
2023-04-16T18:54:28.974Z,4.87
2023-04-16T18:56:59.674Z,5.43
2023-04-16T18:59:29.005Z,5.77
2023-04-16T19:01:57.071Z,4.90
2023-04-16T19:04:25.107Z,5.40
2023-04-16T19:06:53.389Z,6.07
2023-04-16T19:09:21.646Z,5.73
2023-04-16T19:11:52.045Z,5.83
2023-04-16T19:14:20.329Z,6.93
2023-04-16T19:16:48.645Z,5.83
2023-04-16T19:19:16.666Z,6.23
2023-04-16T19:21:44.752Z,5.70
2023-04-16T19:24:12.922Z,5.63
2023-04-16T19:26:41.125Z,6.23
2023-04-16T19:29:09.309Z,5.60
2023-04-16T19:31:37.565Z,5.07
2023-04-16T19:34:05.623Z,4.30
2023-04-16T19:36:33.785Z,4.90
2023-04-16T19:39:02.030Z,4.97
2023-04-16T19:41:30.246Z,4.60
2023-04-16T19:43:58.535Z,5.10
2023-04-16T19:46:26.610Z,3.87
2023-04-16T19:48:54.837Z,3.90
2023-04-16T19:51:23.049Z,4.47
2023-04-16T19:53:51.341Z,4.40
2023-04-16T19:56:19.432Z,4.47
2023-04-16T19:58:47.493Z,4.53
2023-04-16T20:01:15.515Z,4.87
2023-04-16T20:03:43.758Z,5.43
2023-04-16T20:06:11.922Z,6.80
2023-04-16T20:08:40.067Z,7.93
2023-04-16T20:11:09.873Z,5.43
2023-04-16T20:13:38.966Z,4.07
2023-04-16T20:16:07.213Z,3.97
2023-04-16T20:18:42.733Z,3.60
2023-04-16T20:21:11.292Z,4.03
2023-04-16T20:23:39.452Z,3.67
2023-04-16T20:26:07.775Z,4.00
2023-04-16T20:28:36.044Z,3.83
2023-04-16T20:31:04.280Z,3.80
2023-04-16T20:33:32.266Z,3.70
2023-04-16T20:36:00.305Z,3.87
2023-04-16T20:38:30.972Z,3.87
2023-04-16T20:41:07.923Z,3.53
2023-04-16T20:43:39.930Z,3.63
2023-04-16T20:46:12.128Z,2.80
2023-04-16T20:48:40.420Z,3.20
2023-04-16T20:51:11.019Z,3.17
2023-04-16T20:53:39.695Z,3.07
2023-04-16T20:56:08.224Z,2.57
2023-04-16T20:58:36.788Z,3.03
2023-04-16T21:01:06.882Z,3.30
2023-04-16T21:03:35.426Z,3.10
2023-04-16T21:06:03.685Z,2.50
2023-04-16T21:08:31.757Z,2.60
2023-04-16T21:10:59.946Z,2.90
2023-04-16T21:13:27.976Z,2.83
2023-04-16T21:15:56.144Z,2.67
2023-04-16T21:18:24.161Z,3.20
2023-04-16T21:20:52.139Z,3.23
2023-04-16T21:23:20.128Z,3.50
2023-04-16T21:25:48.124Z,3.70
2023-04-16T21:28:16.174Z,3.60
2023-04-16T21:30:44.234Z,3.83
2023-04-16T21:33:14.133Z,3.50
2023-04-16T21:35:42.073Z,3.63
2023-04-16T21:38:10.007Z,3.90
2023-04-16T21:40:37.997Z,9.88
2023-04-16T21:43:06.018Z,11.07
2023-04-16T21:45:34.020Z,6.57
2023-04-16T21:48:02.090Z,4.80
2023-04-16T21:50:30.191Z,4.73
2023-04-16T21:52:58.234Z,3.80
2023-04-16T21:55:26.200Z,4.03
2023-04-16T21:57:54.223Z,3.50
2023-04-16T22:00:22.686Z,4.03
2023-04-16T22:02:50.757Z,3.63
2023-04-16T22:05:18.988Z,4.20
2023-04-16T22:07:46.959Z,3.60
2023-04-16T22:10:15.212Z,3.57
2023-04-16T22:12:46.052Z,3.73
2023-04-16T22:15:14.742Z,3.77
2023-04-16T22:17:43.202Z,3.73
2023-04-16T22:20:13.769Z,3.43
2023-04-16T22:22:42.656Z,3.87
2023-04-16T22:25:11.217Z,3.27
2023-04-16T22:27:39.453Z,3.57
2023-04-16T22:30:10.526Z,3.57
2023-04-16T22:32:38.611Z,3.77
2023-04-16T22:35:07.106Z,3.70
2023-04-16T22:37:35.054Z,3.43
2023-04-16T22:40:03.206Z,3.40
2023-04-16T22:42:31.175Z,3.00
2023-04-16T22:44:59.106Z,3.30
2023-04-16T22:47:27.173Z,3.03
2023-04-16T22:49:55.232Z,3.37
2023-04-16T22:52:23.251Z,2.93
2023-04-16T22:54:51.216Z,2.50
2023-04-16T22:57:22.402Z,2.40
2023-04-16T22:59:50.415Z,2.50
2023-04-16T23:02:18.773Z,2.63
2023-04-16T23:04:48.080Z,2.80
2023-04-16T23:07:16.921Z,2.20
2023-04-16T23:09:44.870Z,2.43
2023-04-16T23:12:12.838Z,2.70
2023-04-16T23:14:40.845Z,2.77
2023-04-16T23:17:08.846Z,2.77
2023-04-16T23:19:36.832Z,2.60
2023-04-16T23:22:05.258Z,3.20
2023-04-16T23:24:33.264Z,2.77
2023-04-16T23:27:01.192Z,2.20
2023-04-16T23:29:29.156Z,2.30
2023-04-16T23:31:57.229Z,2.27
2023-04-16T23:34:25.369Z,2.17
2023-04-16T23:36:53.414Z,2.23
2023-04-16T23:39:21.342Z,1.90
2023-04-16T23:41:49.401Z,2.30
2023-04-16T23:44:17.809Z,2.20
2023-04-16T23:46:45.876Z,2.37
2023-04-16T23:49:13.848Z,2.50
2023-04-16T23:51:41.876Z,2.40
2023-04-16T23:54:09.908Z,2.80
2023-04-16T23:56:37.881Z,3.00
2023-04-16T23:59:05.976Z,3.20
